Time;durP1;ratioP1;P1;durP2;ratioP2;P2;SDS_P1;SDS_P2;PMS_P1;PMS_P2;Temp;Humidity;BMP_temperature;BMP_pressure;BME280_temperature;BME280_humidity;BME280_pressure;Samples;Min_cycle;Max_cycle;Signal;HPM_P1;HPM_P2
2023/06/11 00:02:11;;;;;;;10.35;7.70;;;17.20;99.90;;;;;;6128111;23;20052;-91
2023/06/11 00:05:03;;;;;;;9.48;7.85;;;17.10;99.90;;;;;;6128047;23;20026;-90
2023/06/11 00:07:51;;;;;;;13.27;8.02;;;17.00;1.00;;;;;;6130706;23;20041;-91
2023/06/11 00:10:43;;;;;;;8.52;7.70;;;17.00;1.00;;;;;;6130019;23;20132;-93
2023/06/11 00:13:30;;;;;;;9.45;8.07;;;16.90;1.00;;;;;;6127614;23;20034;-91
2023/06/11 00:16:18;;;;;;;10.52;8.32;;;16.80;1.00;;;;;;6138453;23;20383;-92
2023/06/11 00:19:07;;;;;;;12.38;8.85;;;16.70;1.00;;;;;;6139360;23;20036;-90
2023/06/11 00:21:56;;;;;;;9.50;8.50;;;16.60;1.00;;;;;;6144938;23;20090;-91
2023/06/11 00:24:43;;;;;;;12.68;9.48;;;16.60;1.00;;;;;;6130600;23;20022;-93
2023/06/11 00:27:30;;;;;;;10.43;8.40;;;16.50;1.00;;;;;;6129680;23;20026;-91
2023/06/11 00:30:17;;;;;;;11.57;9.02;;;16.40;1.00;;;;;;6127985;23;20037;-93
2023/06/11 00:33:05;;;;;;;13.48;9.00;;;16.40;1.00;;;;;;6126544;23;20045;-92
2023/06/11 00:35:52;;;;;;;13.23;9.40;;;16.30;1.00;;;;;;6132280;23;20010;-95
2023/06/11 00:38:42;;;;;;;10.75;8.68;;;16.30;21.90;;;;;;6108638;23;20030;-91
2023/06/11 00:41:30;;;;;;;12.80;10.65;;;16.30;52.10;;;;;;6127923;23;20026;-91
2023/06/11 00:44:21;;;;;;;10.32;9.20;;;16.30;72.90;;;;;;6129096;23;20109;-92
2023/06/11 00:47:09;;;;;;;10.98;8.85;;;16.40;89.00;;;;;;6111862;23;20026;-90
2023/06/11 00:49:57;;;;;;;12.73;9.50;;;16.30;95.10;;;;;;6126882;23;20022;-92
2023/06/11 00:52:44;;;;;;;10.52;8.82;;;16.40;99.90;;;;;;6130975;23;20022;-92
2023/06/11 00:55:36;;;;;;;11.82;8.82;;;16.30;99.90;;;;;;6135641;23;20042;-95
2023/06/11 00:58:24;;;;;;;10.27;9.20;;;16.30;99.90;;;;;;6114336;23;20413;-94
2023/06/11 01:01:25;;;;;;;10.80;9.68;;;16.10;99.90;;;;;;6138703;23;20090;-95
2023/06/11 01:04:23;;;;;;;11.98;9.88;;;16.10;99.90;;;;;;6143565;23;20077;-93
2023/06/11 01:07:15;;;;;;;11.15;9.88;;;15.90;99.90;;;;;;6122176;23;20030;-90
2023/06/11 01:10:05;;;;;;;12.18;10.20;;;15.90;99.90;;;;;;6124610;23;20082;-94
2023/06/11 01:12:53;;;;;;;13.48;10.43;;;15.80;99.90;;;;;;6149671;23;20014;-90
2023/06/11 01:15:44;;;;;;;13.98;10.30;;;15.70;99.90;;;;;;6145462;23;20032;-93
2023/06/11 01:18:47;;;;;;;14.88;9.95;;;15.70;99.90;;;;;;6143280;23;20113;-91
2023/06/11 01:21:49;;;;;;;;;;;15.70;1.00;;;;;;6162394;23;20014;-92
2023/06/11 01:24:56;;;;;;;11.95;10.48;;;15.70;1.00;;;;;;6149858;23;20036;-93
2023/06/11 01:31:46;;;;;;;12.38;10.07;;;15.60;1.00;;;;;;6141588;23;20108;-91
2023/06/11 01:34:33;;;;;;;15.48;10.70;;;15.60;1.00;;;;;;6173847;23;20025;-93
2023/06/11 01:37:29;;;;;;;15.77;10.80;;;15.50;10.60;;;;;;6148278;23;20088;-92
2023/06/11 01:40:17;;;;;;;14.68;11.98;;;15.50;66.20;;;;;;6152882;23;20065;-93
2023/06/11 01:43:07;;;;;;;14.25;11.23;;;15.50;99.90;;;;;;6166885;23;20029;-93
2023/06/11 01:46:03;;;;;;;15.05;11.35;;;15.50;99.90;;;;;;6173677;23;20026;-89
2023/06/11 01:48:54;;;;;;;12.38;11.02;;;15.50;99.90;;;;;;6169431;23;20025;-93
2023/06/11 01:51:41;;;;;;;13.23;11.48;;;15.60;99.90;;;;;;6169385;23;20009;-92
2023/06/11 01:54:31;;;;;;;17.67;12.07;;;15.50;99.90;;;;;;6173186;23;20022;-91
2023/06/11 01:57:20;;;;;;;13.82;11.35;;;15.50;99.90;;;;;;6177407;23;20072;-89
2023/06/11 02:01:05;;;;;;;;;;;;;;;;;;;;;
2023/06/11 02:04:48;;;;;;;;;;;;;;;;;;;;;
2023/06/11 02:12:11;;;;;;;14.48;12.80;;;15.20;1.00;;;;;;5990175;24;20022;-93
2023/06/11 02:14:58;;;;;;;15.50;12.50;;;15.20;1.00;;;;;;6000821;23;20027;-93
2023/06/11 02:17:45;;;;;;;14.93;12.45;;;15.20;70.10;;;;;;6053558;23;20019;-88
2023/06/11 02:20:33;;;;;;;15.55;12.50;;;15.20;99.90;;;;;;6058037;23;20023;-90
2023/06/11 02:23:24;;;;;;;15.30;12.57;;;15.20;99.90;;;;;;6030741;23;20073;-91
2023/06/11 02:26:11;;;;;;;15.65;12.85;;;15.20;99.90;;;;;;6046720;23;20023;-91
2023/06/11 02:28:58;;;;;;;16.15;12.93;;;15.20;99.90;;;;;;6048391;23;20035;-90
2023/06/11 02:31:46;;;;;;;19.65;12.68;;;15.20;99.90;;;;;;6045083;23;20067;-90
2023/06/11 02:34:36;;;;;;;16.80;13.35;;;15.20;99.90;;;;;;6029297;23;20031;-93
2023/06/11 02:37:23;;;;;;;14.95;12.85;;;15.20;99.90;;;;;;6043430;23;20027;-92
2023/06/11 02:40:11;;;;;;;14.52;12.88;;;15.20;99.90;;;;;;6091726;23;20021;-92
2023/06/11 02:43:54;;;;;;;15.57;13.50;;;15.20;99.90;;;;;;6167946;23;20029;-92
2023/06/11 02:46:43;;;;;;;16.92;14.13;;;15.10;99.90;;;;;;6163746;23;20021;-93
2023/06/11 02:49:45;;;;;;;15.68;13.80;;;15.10;1.00;;;;;;6140581;23;20121;-93
2023/06/11 02:52:36;;;;;;;16.27;13.80;;;15.10;4.30;;;;;;6159198;23;20053;-91
2023/06/11 02:56:22;;;;;;;17.10;14.98;;;15.10;99.90;;;;;;6157737;23;20043;-92
2023/06/11 03:08:00;;;;;;;17.40;15.43;;;14.80;1.00;;;;;;5923036;24;20017;-93
2023/06/11 03:10:49;;;;;;;19.70;14.95;;;14.90;1.00;;;;;;5935701;23;20041;-94
2023/06/11 03:13:38;;;;;;;17.38;14.57;;;14.90;99.90;;;;;;6128441;23;20025;-94
2023/06/11 03:16:26;;;;;;;18.08;14.85;;;14.90;99.90;;;;;;6162351;23;20108;-94
2023/06/11 03:19:17;;;;;;;17.30;14.30;;;14.80;1.00;;;;;;6156824;23;20109;-93
2023/06/11 03:22:07;;;;;;;18.40;14.32;;;14.90;99.90;;;;;;6159028;23;20051;-92
2023/06/11 03:24:54;;;;;;;17.33;14.25;;;14.90;99.90;;;;;;6159304;23;20029;-95
2023/06/11 03:27:41;;;;;;;17.38;15.48;;;14.90;99.90;;;;;;6160664;23;20026;-94
2023/06/11 03:30:29;;;;;;;19.35;14.50;;;14.80;99.90;;;;;;6134976;23;20504;-91
2023/06/11 03:33:16;;;;;;;15.68;13.88;;;14.80;99.90;;;;;;6158987;23;20021;-93
2023/06/11 03:36:04;;;;;;;18.27;14.15;;;14.80;99.90;;;;;;6165390;23;20033;-94
2023/06/11 03:38:51;;;;;;;16.98;14.30;;;14.70;92.30;;;;;;6163852;23;20030;-94
2023/06/11 03:41:59;;;;;;;18.77;15.55;;;14.70;99.90;;;;;;6158503;23;20037;-92
2023/06/11 03:44:46;;;;;;;18.30;14.55;;;14.80;1.00;;;;;;6158632;23;20036;-91
2023/06/11 03:51:42;;;;;;;18.75;14.25;;;14.70;60.10;;;;;;6022615;23;20447;-91
2023/06/11 03:54:46;;;;;;;17.38;14.00;;;14.70;1.00;;;;;;6006367;23;20026;-94
2023/06/11 03:57:33;;;;;;;17.17;14.60;;;14.80;1.00;;;;;;6138946;23;20084;-91
2023/06/11 04:00:20;;;;;;;23.75;14.77;;;14.80;1.00;;;;;;6170333;23;20025;-92
2023/06/11 04:08:34;;;;;;;15.88;13.88;;;14.80;1.00;;;;;;6144989;23;20045;-93
2023/06/11 04:11:22;;;;;;;15.85;13.80;;;14.80;99.90;;;;;;6141173;23;20374;-94
2023/06/11 04:15:15;;;;;;;17.42;13.38;;;14.90;99.90;;;;;;6172336;23;20014;-91
2023/06/11 04:19:04;;;;;;;20.15;12.93;;;14.90;99.90;;;;;;6173991;23;20053;-90
2023/06/11 04:21:51;;;;;;;16.80;11.77;;;15.00;99.90;;;;;;6135995;23;20436;-92
2023/06/11 04:24:39;;;;;;;14.52;12.05;;;15.20;99.90;;;;;;6164263;23;20033;-93
2023/06/11 04:27:33;;;;;;;14.18;12.63;;;15.20;99.90;;;;;;6162796;23;20017;-92
2023/06/11 04:30:31;;;;;;;14.88;11.50;;;15.30;99.90;;;;;;6142734;23;20037;-90
2023/06/11 04:33:24;;;;;;;13.77;11.35;;;15.30;67.70;;;;;;6142662;23;20025;-93
2023/06/11 04:36:41;;;;;;;;;;;15.50;1.00;;;;;;6170864;23;20060;-95
2023/06/11 04:39:32;;;;;;;27.88;11.60;;;15.60;99.90;;;;;;6144687;23;19947;-92
2023/06/11 04:42:25;;;;;;;11.98;10.73;;;15.60;1.00;;;;;;6175106;23;20025;-88
2023/06/11 04:45:26;;;;;;;14.02;11.00;;;15.70;99.90;;;;;;6175924;23;20053;-93
2023/06/11 04:48:28;;;;;;;11.23;10.13;;;15.80;73.50;;;;;;6146751;23;20030;-93
2023/06/11 04:51:17;;;;;;;11.38;9.88;;;15.90;21.10;;;;;;6141778;23;20025;-93
2023/06/11 04:54:07;;;;;;;11.02;9.88;;;15.90;1.00;;;;;;6149958;23;20085;-92
2023/06/11 04:57:20;;;;;;;12.18;10.30;;;16.00;99.90;;;;;;6172300;23;20025;-92
2023/06/11 05:00:08;;;;;;;13.30;10.93;;;16.00;99.90;;;;;;6156594;23;20029;-90
2023/06/11 05:02:56;;;;;;;13.18;10.88;;;16.00;47.10;;;;;;6157504;23;20405;-92
2023/06/11 05:05:49;;;;;;;13.48;11.70;;;16.00;1.00;;;;;;6161980;23;20025;-90
2023/06/11 05:08:37;;;;;;;12.52;10.73;;;16.10;1.00;;;;;;6121615;23;20032;-93
2023/06/11 05:11:24;;;;;;;13.27;9.85;;;16.20;1.00;;;;;;6163898;23;20021;-89
2023/06/11 05:14:12;;;;;;;12.18;10.20;;;16.20;99.90;;;;;;6163227;23;20033;-93
2023/06/11 05:16:59;;;;;;;11.07;9.93;;;16.30;99.90;;;;;;6160034;23;20025;-91
2023/06/11 05:19:51;;;;;;;14.65;10.18;;;16.50;99.90;;;;;;6162792;23;20148;-91
2023/06/11 05:22:53;;;;;;;9.75;8.75;;;16.60;99.90;;;;;;6161890;23;20033;-89
2023/06/11 05:25:46;;;;;;;11.43;9.93;;;16.70;99.90;;;;;;6159400;23;20022;-91
2023/06/11 05:28:37;;;;;;;14.15;9.18;;;16.70;99.90;;;;;;6135111;23;20035;-92
2023/06/11 05:31:24;;;;;;;12.73;10.27;;;16.80;77.00;;;;;;6136645;23;20025;-90
2023/06/11 05:34:11;;;;;;;11.75;9.00;;;16.90;1.00;;;;;;6158033;23;20022;-93
2023/06/11 05:37:04;;;;;;;9.65;8.65;;;17.00;1.00;;;;;;6161813;23;20033;-91
2023/06/11 05:48:05;;;;;;;11.23;9.38;;;17.30;99.90;;;;;;6142453;23;20028;-91
2023/06/11 05:55:00;;;;;;;9.90;7.68;;;17.50;99.90;;;;;;6159932;23;20101;-88
2023/06/11 05:57:48;;;;;;;11.18;8.88;;;17.60;99.90;;;;;;6156869;23;20033;-89
2023/06/11 06:00:35;;;;;;;10.70;8.57;;;17.70;75.80;;;;;;6155760;23;20022;-87
2023/06/11 06:03:33;;;;;;;9.48;8.48;;;17.80;53.20;;;;;;6136446;23;20037;-88
2023/06/11 06:06:21;;;;;;;12.57;8.63;;;17.90;1.00;;;;;;6134432;23;20037;-88
2023/06/11 06:09:16;;;;;;;12.45;8.18;;;18.00;1.00;;;;;;6155318;23;20064;-90
2023/06/11 06:12:04;;;;;;;11.70;8.00;;;18.10;1.00;;;;;;6154998;23;20057;-87
2023/06/11 06:14:51;;;;;;;11.73;7.57;;;18.30;1.00;;;;;;6159467;23;20045;-90
2023/06/11 06:17:42;;;;;;;8.20;7.40;;;18.30;99.90;;;;;;6156771;23;20392;-88
2023/06/11 06:20:29;;;;;;;8.70;7.90;;;18.40;99.90;;;;;;6133848;23;20112;-88
2023/06/11 06:23:16;;;;;;;8.57;7.40;;;18.60;99.90;;;;;;6156284;23;20025;-88
2023/06/11 06:26:04;;;;;;;11.70;7.75;;;18.70;99.90;;;;;;6138416;23;20030;-88
2023/06/11 06:29:02;;;;;;;7.47;6.78;;;18.70;99.90;;;;;;6139423;23;20037;-90
2023/06/11 06:31:52;;;;;;;7.72;6.93;;;18.70;99.90;;;;;;6133591;23;20032;-90
2023/06/11 06:34:40;;;;;;;8.73;7.20;;;18.80;99.90;;;;;;6136554;23;20541;-88
2023/06/11 06:37:30;;;;;;;7.50;6.65;;;18.90;99.90;;;;;;6136175;23;20077;-93
2023/06/11 06:40:18;;;;;;;10.98;7.07;;;19.00;99.90;;;;;;6155436;23;20128;-86
2023/06/11 06:43:05;;;;;;;7.13;6.43;;;19.30;82.40;;;;;;6133931;23;20053;-88
2023/06/11 06:45:56;;;;;;;10.45;6.88;;;19.50;61.20;;;;;;6114505;23;20084;-91
2023/06/11 06:48:53;;;;;;;9.20;7.07;;;19.80;99.90;;;;;;6133966;23;20025;-92
2023/06/11 06:51:49;;;;;;;7.97;6.85;;;19.90;99.90;;;;;;6133826;23;20041;-92
2023/06/11 06:54:58;;;;;;;6.90;6.15;;;20.00;22.60;;;;;;6135257;23;20040;-94
2023/06/11 06:58:00;;;;;;;7.63;6.35;;;20.30;27.60;;;;;;6157388;23;20444;-93
2023/06/11 07:01:08;;;;;;;6.80;6.15;;;20.50;1.00;;;;;;6135958;23;20144;-91
2023/06/11 07:03:59;;;;;;;6.13;5.53;;;20.70;1.00;;;;;;6136043;23;20336;-93
2023/06/11 07:06:50;;;;;;;8.40;6.13;;;21.10;1.00;;;;;;6152713;23;20185;-89
2023/06/11 07:09:39;;;;;;;8.35;5.95;;;21.30;99.90;;;;;;6135382;23;20025;-91
2023/06/11 07:12:30;;;;;;;6.55;5.60;;;21.50;99.90;;;;;;6155377;23;20101;-92
2023/06/11 07:15:20;;;;;;;6.38;5.72;;;21.90;99.90;;;;;;6116315;23;20361;-88
2023/06/11 07:18:08;;;;;;;7.07;5.55;;;22.20;99.90;;;;;;6156203;23;20293;-90
2023/06/11 07:20:59;;;;;;;11.90;6.25;;;22.70;99.90;;;;;;6160458;23;20040;-89
2023/06/11 07:23:51;;;;;;;7.72;5.70;;;23.20;99.90;;;;;;6132703;23;20044;-90
2023/06/11 07:26:39;;;;;;;6.47;5.72;;;23.50;99.90;;;;;;6153548;23;20374;-91
2023/06/11 07:29:34;;;;;;;6.47;5.45;;;23.30;99.90;;;;;;6132389;23;20025;-88
2023/06/11 07:36:06;;;;;;;6.35;5.03;;;24.10;99.90;;;;;;6152332;23;20418;-88
2023/06/11 07:39:02;;;;;;;6.20;5.10;;;24.30;99.90;;;;;;6133962;23;20037;-90
2023/06/11 07:41:49;;;;;;;6.07;4.95;;;24.90;99.90;;;;;;6133728;23;20061;-88
2023/06/11 07:44:37;;;;;;;5.45;4.32;;;25.40;99.90;;;;;;6154081;23;20500;-90
2023/06/11 07:47:45;;;;;;;6.28;5.20;;;25.50;99.70;;;;;;6135312;23;20033;-90
2023/06/11 07:50:34;;;;;;;5.25;4.45;;;26.20;99.90;;;;;;6124524;23;20325;-89
2023/06/11 07:53:30;;;;;;;6.15;4.65;;;26.00;91.40;;;;;;6135277;23;20040;-91
2023/06/11 07:56:18;;;;;;;7.25;4.43;;;26.00;46.40;;;;;;6155129;23;20026;-87
2023/06/11 07:59:56;;;;;;;7.70;4.28;;;26.10;55.60;;;;;;6134914;23;20048;-90
2023/06/11 08:02:52;;;;;;;7.10;4.90;;;26.00;47.70;;;;;;6155759;23;20122;-91
2023/06/11 08:05:41;;;;;;;5.20;4.40;;;26.60;17.50;;;;;;6135989;23;20141;-91
2023/06/11 08:08:31;;;;;;;4.97;4.20;;;26.90;31.00;;;;;;6138119;23;20336;-91
2023/06/11 08:11:20;;;;;;;5.07;4.57;;;27.30;20.70;;;;;;6136153;23;20021;-91
2023/06/11 08:14:08;;;;;;;4.40;4.00;;;27.70;9.40;;;;;;6138242;23;20060;-90
2023/06/11 08:17:00;;;;;;;4.75;4.28;;;27.30;99.90;;;;;;6139766;23;20041;-89
2023/06/11 08:19:50;;;;;;;5.80;4.10;;;27.30;61.90;;;;;;6137297;23;20116;-89
2023/06/11 08:22:39;;;;;;;6.25;4.30;;;27.40;99.90;;;;;;6140286;23;20025;-88
2023/06/11 08:25:26;;;;;;;4.70;4.20;;;27.60;99.90;;;;;;6138512;23;20025;-90
2023/06/11 08:28:32;;;;;;;4.03;3.60;;;27.70;99.90;;;;;;6138892;23;20049;-92
2023/06/11 08:31:21;;;;;;;5.13;4.15;;;27.90;99.90;;;;;;6139797;23;20408;-92
2023/06/11 08:34:12;;;;;;;5.00;3.65;;;28.20;99.90;;;;;;6139179;23;20033;-89
2023/06/11 08:37:00;;;;;;;6.55;3.65;;;28.40;99.90;;;;;;6137943;23;20353;-88
2023/06/11 08:39:47;;;;;;;5.97;3.47;;;28.30;99.90;;;;;;6160426;23;20443;-90
2023/06/11 08:42:35;;;;;;;3.80;3.40;;;28.30;99.90;;;;;;6160417;23;20116;-87
2023/06/11 08:45:22;;;;;;;4.38;3.97;;;28.10;99.90;;;;;;6160111;23;20112;-93
2023/06/11 08:48:10;;;;;;;4.15;3.20;;;28.00;99.90;;;;;;6140154;23;20017;-86
2023/06/11 08:51:01;;;;;;;4.72;3.63;;;28.50;99.90;;;;;;6138189;23;20286;-90
2023/06/11 08:53:53;;;;;;;5.27;3.53;;;28.40;99.90;;;;;;6138264;23;20345;-90
2023/06/11 08:56:42;;;;;;;5.00;3.50;;;28.70;99.90;;;;;;6141347;23;20040;-92
2023/06/11 08:59:35;;;;;;;5.93;3.50;;;28.20;99.90;;;;;;6141125;23;20096;-90
2023/06/11 09:02:31;;;;;;;4.30;3.50;;;28.20;99.90;;;;;;6146226;23;20036;-90
2023/06/11 09:05:22;;;;;;;6.13;3.90;;;27.70;99.90;;;;;;6138732;23;20029;-91
2023/06/11 09:08:10;;;;;;;6.50;4.00;;;28.20;99.90;;;;;;6160717;23;20117;-89
2023/06/11 09:10:57;;;;;;;6.60;3.75;;;28.60;99.90;;;;;;6159848;23;20182;-93
2023/06/11 09:13:45;;;;;;;4.65;3.95;;;28.50;99.90;;;;;;6149082;23;20096;-91
2023/06/11 09:16:43;;;;;;;4.75;3.17;;;29.00;99.90;;;;;;6146505;23;20018;-88
2023/06/11 09:19:37;;;;;;;4.63;3.30;;;29.70;99.90;;;;;;6159183;23;20021;-89
2023/06/11 09:22:28;;;;;;;5.28;3.13;;;30.30;99.90;;;;;;6137088;23;20416;-87
2023/06/11 09:25:19;;;;;;;3.83;3.25;;;30.60;99.90;;;;;;6138631;23;20405;-87
2023/06/11 09:28:07;;;;;;;4.60;3.63;;;29.80;99.90;;;;;;6138431;23;20096;-90
2023/06/11 09:30:56;;;;;;;4.28;3.50;;;29.20;99.90;;;;;;6138460;23;20085;-91
2023/06/11 09:33:43;;;;;;;4.47;3.33;;;29.10;90.30;;;;;;6136226;23;20516;-92
2023/06/11 09:36:33;;;;;;;5.20;3.40;;;29.40;97.70;;;;;;6138198;23;20060;-90
2023/06/11 09:39:21;;;;;;;6.90;3.35;;;29.30;99.90;;;;;;6137773;23;20033;-88
2023/06/11 09:42:23;;;;;;;3.60;3.30;;;29.70;99.90;;;;;;6138388;23;20021;-92
2023/06/11 09:45:13;;;;;;;;;;;29.90;99.90;;;;;;6140191;23;20084;-89
2023/06/11 09:48:05;;;;;;;5.75;3.53;;;30.40;99.90;;;;;;6158652;23;20241;-89
2023/06/11 09:50:53;;;;;;;5.97;3.65;;;30.10;99.90;;;;;;6138122;23;20033;-89
2023/06/11 09:53:43;;;;;;;5.68;3.75;;;30.50;99.90;;;;;;6136893;23;20360;-87
2023/06/11 09:56:31;;;;;;;6.60;3.75;;;30.90;99.90;;;;;;6136553;23;20053;-89
2023/06/11 09:59:19;;;;;;;4.70;3.60;;;31.10;99.90;;;;;;6137740;23;20420;-92
2023/06/11 10:02:08;;;;;;;3.70;3.40;;;31.20;99.90;;;;;;6138539;23;20364;-91
2023/06/11 10:04:57;;;;;;;4.28;3.47;;;31.20;99.90;;;;;;6142926;23;20088;-90
2023/06/11 10:08:12;;;;;;;5.10;3.75;;;31.10;99.90;;;;;;6144186;23;20029;-89
2023/06/11 10:11:03;;;;;;;5.75;4.00;;;31.40;99.90;;;;;;6140471;23;20274;-90
2023/06/11 10:13:59;;;;;;;6.03;3.63;;;31.90;99.90;;;;;;6157940;23;20315;-91
2023/06/11 10:16:51;;;;;;;6.07;3.75;;;31.10;99.90;;;;;;6137813;23;20116;-90
2023/06/11 10:19:39;;;;;;;6.78;3.90;;;30.30;99.90;;;;;;6137654;23;20026;-88
2023/06/11 10:22:34;;;;;;;6.50;3.83;;;30.20;99.90;;;;;;6139666;23;20025;-90
2023/06/11 10:25:35;;;;;;;3.75;3.45;;;30.00;99.90;;;;;;6138286;23;20025;-93
2023/06/11 10:28:36;;;;;;;4.20;3.53;;;29.80;99.90;;;;;;6138284;23;20032;-88
2023/06/11 10:31:29;;;;;;;5.50;3.47;;;29.70;99.90;;;;;;6137147;23;20025;-89
2023/06/11 10:34:16;;;;;;;5.60;3.33;;;30.10;99.90;;;;;;6139857;23;20023;-89
2023/06/11 10:37:04;;;;;;;5.15;3.85;;;30.40;99.90;;;;;;6140947;23;20033;-93
2023/06/11 10:39:54;;;;;;;6.68;3.45;;;31.10;1.00;;;;;;6138128;23;20029;-87
2023/06/11 10:42:50;;;;;;;5.80;3.70;;;31.40;99.90;;;;;;6138166;23;20105;-89
2023/06/11 10:45:38;;;;;;;4.10;3.63;;;32.10;1.00;;;;;;6138515;23;20114;-90
2023/06/11 10:48:32;;;;;;;7.03;3.70;;;33.10;1.00;;;;;;6139769;23;20080;-90
2023/06/11 10:51:40;;;;;;;4.15;3.42;;;32.40;1.00;;;;;;6158464;23;20026;-90
2023/06/11 10:54:35;;;;;;;6.20;3.58;;;32.60;1.00;;;;;;6137963;23;20174;-88
2023/06/11 10:57:23;;;;;;;4.38;3.40;;;32.30;1.00;;;;;;6138226;23;20021;-92
2023/06/11 11:00:11;;;;;;;4.53;3.47;;;32.50;1.00;;;;;;6140296;23;20064;-89
2023/06/11 11:03:03;;;;;;;4.03;3.63;;;32.20;1.00;;;;;;6140650;23;20025;-90
2023/06/11 11:05:52;;;;;;;7.57;3.50;;;32.60;99.90;;;;;;6139254;23;20329;-89
2023/06/11 11:08:39;;;;;;;4.30;3.20;;;32.50;99.90;;;;;;6140464;23;20022;-90
2023/06/11 11:11:27;;;;;;;3.63;3.33;;;32.50;1.00;;;;;;6138510;23;20026;-92
2023/06/11 11:14:17;;;;;;;3.67;2.95;;;32.40;99.90;;;;;;6138656;23;20068;-91
2023/06/11 11:17:05;;;;;;;12.27;3.47;;;32.00;99.90;;;;;;6138158;23;20337;-89
2023/06/11 11:19:53;;;;;;;5.65;3.50;;;31.30;99.90;;;;;;6138731;23;20036;-87
2023/06/11 11:22:40;;;;;;;6.75;4.15;;;31.60;99.90;;;;;;6138266;23;20136;-90
2023/06/11 11:25:29;;;;;;;5.82;3.50;;;31.40;99.90;;;;;;6136438;23;20037;-89
2023/06/11 11:28:17;;;;;;;9.10;3.75;;;32.20;99.90;;;;;;6136777;23;20022;-90
2023/06/11 11:31:05;;;;;;;4.95;4.03;;;32.70;99.90;;;;;;6138805;23;20036;-88
2023/06/11 11:33:52;;;;;;;4.30;3.50;;;32.60;99.90;;;;;;6137931;23;20100;-87
2023/06/11 11:36:45;;;;;;;6.40;3.60;;;32.20;99.90;;;;;;6119264;23;20049;-92
2023/06/11 11:39:32;;;;;;;6.47;3.80;;;32.60;99.90;;;;;;6141388;23;20049;-90
2023/06/11 11:42:24;;;;;;;5.28;3.60;;;33.10;99.90;;;;;;6139771;23;20036;-91
2023/06/11 11:45:14;;;;;;;4.68;3.70;;;33.40;99.90;;;;;;6160574;23;20127;-90
2023/06/11 11:48:02;;;;;;;5.15;3.35;;;34.10;99.90;;;;;;6142211;23;20033;-91
2023/06/11 11:51:07;;;;;;;3.83;3.35;;;34.00;99.90;;;;;;6140133;23;20103;-86
2023/06/11 11:54:00;;;;;;;7.72;3.60;;;32.70;99.90;;;;;;6140140;23;20105;-91
2023/06/11 11:57:01;;;;;;;5.15;3.20;;;33.20;99.90;;;;;;6137665;23;20034;-92
2023/06/11 11:59:53;;;;;;;6.80;3.50;;;33.80;99.90;;;;;;6144750;23;20077;-92
2023/06/11 12:02:47;;;;;;;3.47;3.17;;;34.60;99.90;;;;;;6121634;23;20469;-93
2023/06/11 12:05:35;;;;;;;4.95;3.63;;;35.20;99.90;;;;;;6117672;23;20303;-91
2023/06/11 12:08:23;;;;;;;3.28;2.55;;;35.00;1.00;;;;;;6160136;23;20334;-91
2023/06/11 12:11:16;;;;;;;7.88;3.05;;;35.20;99.90;;;;;;6137370;23;20033;-92
2023/06/11 12:14:04;;;;;;;4.78;2.78;;;35.20;99.90;;;;;;6139330;23;20022;-92
2023/06/11 12:16:56;;;;;;;6.75;3.10;;;33.90;99.90;;;;;;6139280;23;20302;-89
2023/06/11 12:19:44;;;;;;;4.20;2.85;;;33.40;99.90;;;;;;6137534;23;20425;-92
2023/06/11 12:22:31;;;;;;;3.33;3.00;;;33.60;99.90;;;;;;6137602;23;20105;-85
2023/06/11 12:25:19;;;;;;;3.85;2.90;;;32.90;99.90;;;;;;6139376;23;20341;-92
2023/06/11 12:28:06;;;;;;;4.50;3.28;;;33.40;99.90;;;;;;6136291;23;20032;-91
2023/06/11 12:30:54;;;;;;;5.57;3.22;;;33.90;99.90;;;;;;6138938;23;20017;-91
2023/06/11 12:33:43;;;;;;;4.95;2.85;;;33.70;99.90;;;;;;6161597;23;20321;-89
2023/06/11 12:36:32;;;;;;;4.95;3.05;;;34.20;99.90;;;;;;6138565;23;20028;-90
2023/06/11 12:39:20;;;;;;;3.03;2.72;;;34.80;99.90;;;;;;6136997;23;20025;-92
2023/06/11 12:42:07;;;;;;;3.45;3.13;;;35.30;99.90;;;;;;6137291;23;20026;-91
2023/06/11 12:44:54;;;;;;;4.88;2.95;;;34.20;99.90;;;;;;6138255;23;20281;-91
2023/06/11 12:47:44;;;;;;;4.95;3.30;;;33.20;99.90;;;;;;6158877;23;20100;-88
2023/06/11 12:50:32;;;;;;;4.18;2.85;;;33.60;99.90;;;;;;6139195;23;20049;-92
2023/06/11 12:53:27;;;;;;;5.78;3.25;;;34.10;99.90;;;;;;6141686;23;20036;-92
2023/06/11 12:56:23;;;;;;;5.05;3.17;;;34.10;99.90;;;;;;6161575;23;20074;-92
2023/06/11 12:59:15;;;;;;;7.80;3.22;;;33.10;99.90;;;;;;6162360;23;20025;-89
2023/06/11 13:02:04;;;;;;;;;;;33.00;99.90;;;;;;6162434;23;20025;-88
2023/06/11 13:04:52;;;;;;;4.22;3.40;;;34.10;99.90;;;;;;6158967;23;19916;-91
2023/06/11 13:07:41;;;;;;;7.90;3.08;;;34.40;99.90;;;;;;6138658;23;20446;-92
2023/06/11 13:10:29;;;;;;;5.75;2.92;;;35.50;99.90;;;;;;6145367;23;20025;-89
2023/06/11 13:13:16;;;;;;;4.05;2.97;;;35.50;99.90;;;;;;6138474;23;20022;-88
2023/06/11 13:16:03;;;;;;;5.45;2.80;;;35.60;99.90;;;;;;6162239;23;20026;-92
2023/06/11 13:18:51;;;;;;;3.40;3.10;;;35.00;99.90;;;;;;6139505;23;20025;-89
2023/06/11 13:21:39;;;;;;;5.82;3.03;;;34.30;99.90;;;;;;6140975;23;20022;-88
2023/06/11 13:24:26;;;;;;;3.72;3.40;;;34.20;99.90;;;;;;6138908;23;20053;-90
2023/06/11 13:27:14;;;;;;;3.95;3.30;;;34.50;99.90;;;;;;6138409;23;20022;-87
2023/06/11 13:30:02;;;;;;;3.70;3.17;;;35.50;99.90;;;;;;6138124;23;20329;-89
2023/06/11 13:32:49;;;;;;;11.68;3.72;;;35.20;99.90;;;;;;6137681;23;20485;-92
2023/06/11 13:35:37;;;;;;;3.05;2.80;;;34.80;99.90;;;;;;6138745;23;20025;-91
2023/06/11 13:38:30;;;;;;;5.90;3.08;;;35.00;99.90;;;;;;6139235;23;20030;-91
2023/06/11 13:41:45;;;;;;;4.50;3.13;;;34.60;99.90;;;;;;6139775;23;20394;-91
2023/06/11 13:44:38;;;;;;;3.65;3.00;;;35.40;99.90;;;;;;6138541;23;20025;-91
2023/06/11 13:47:32;;;;;;;6.80;3.10;;;35.70;99.90;;;;;;6163395;23;20385;-92
2023/06/11 13:50:19;;;;;;;4.25;3.25;;;35.00;99.90;;;;;;6140966;23;20029;-93
2023/06/11 13:53:07;;;;;;;5.25;3.20;;;34.80;99.90;;;;;;6138435;23;20022;-92
2023/06/11 13:55:54;;;;;;;5.90;2.88;;;35.30;99.90;;;;;;6138700;23;20086;-84
2023/06/11 13:58:41;;;;;;;8.23;3.47;;;34.20;99.90;;;;;;6140628;23;20048;-89
2023/06/11 14:01:31;;;;;;;4.22;3.20;;;33.80;99.90;;;;;;6141985;23;20017;-91
2023/06/11 14:04:25;;;;;;;7.28;3.40;;;33.40;99.90;;;;;;6160049;23;20025;-91
2023/06/11 14:07:16;;;;;;;4.03;3.33;;;33.30;99.90;;;;;;6139897;23;20074;-93
2023/06/11 14:10:04;;;;;;;4.13;3.40;;;33.40;99.90;;;;;;6142079;23;20352;-93
2023/06/11 14:12:52;;;;;;;4.40;3.60;;;33.70;99.90;;;;;;6139983;23;20365;-89
2023/06/11 14:19:50;;;;;;;7.35;3.28;;;33.60;1.00;;;;;;6163885;23;20096;-89
2023/06/11 14:22:39;;;;;;;7.05;3.65;;;33.20;1.00;;;;;;6166748;23;20088;-88
2023/06/11 14:25:30;;;;;;;4.63;3.55;;;33.20;1.00;;;;;;6146884;23;20044;-92
2023/06/11 14:28:18;;;;;;;4.68;3.03;;;33.20;1.00;;;;;;6129303;23;20049;-89
2023/06/11 14:35:07;;;;;;;5.40;3.25;;;33.20;1.00;;;;;;6168000;23;20017;-89
2023/06/11 14:37:55;;;;;;;4.55;3.38;;;32.50;40.10;;;;;;6144894;23;20021;-90
2023/06/11 14:40:46;;;;;;;6.05;3.60;;;32.40;95.10;;;;;;6141446;23;20036;-92
2023/06/11 14:43:42;;;;;;;5.93;3.10;;;32.50;77.50;;;;;;6137984;23;20035;-89
2023/06/11 14:46:30;;;;;;;4.78;3.15;;;32.30;84.40;;;;;;6138980;23;20025;-91
2023/06/11 14:49:21;;;;;;;4.13;3.20;;;32.80;99.90;;;;;;6137691;23;20034;-93
2023/06/11 14:52:10;;;;;;;5.65;4.38;;;33.40;99.90;;;;;;6140773;23;20116;-90
2023/06/11 14:55:02;;;;;;;4.13;3.70;;;32.30;47.70;;;;;;6141420;23;20487;-91
2023/06/11 14:57:53;;;;;;;4.40;3.70;;;32.20;1.00;;;;;;6140059;23;20107;-92
2023/06/11 15:00:43;;;;;;;4.82;3.70;;;32.10;1.00;;;;;;6140657;23;20026;-90
2023/06/11 15:03:33;;;;;;;3.97;3.58;;;32.10;1.00;;;;;;6121795;23;20017;-91
2023/06/11 15:06:21;;;;;;;5.45;3.55;;;32.00;1.00;;;;;;6139678;23;20021;-90
2023/06/11 15:09:09;;;;;;;4.28;3.30;;;32.20;63.10;;;;;;6118081;23;20112;-87
2023/06/11 15:11:59;;;;;;;5.88;3.33;;;33.20;80.10;;;;;;6137360;23;20069;-89
2023/06/11 15:14:46;;;;;;;6.38;3.50;;;33.00;88.50;;;;;;6137032;23;20049;-89
2023/06/11 15:17:38;;;;;;;7.30;2.83;;;32.40;82.40;;;;;;6135851;23;20025;-88
2023/06/11 15:20:25;;;;;;;5.18;3.80;;;32.40;52.50;;;;;;6139079;23;20033;-89
2023/06/11 15:23:12;;;;;;;4.15;3.30;;;32.30;80.70;;;;;;6135857;23;20032;-87
2023/06/11 15:26:00;;;;;;;5.85;3.85;;;32.30;1.00;;;;;;6136302;23;20394;-91
2023/06/11 15:28:47;;;;;;;5.65;3.47;;;32.50;1.00;;;;;;6138492;23;20026;-89
2023/06/11 15:31:35;;;;;;;4.60;3.20;;;32.50;99.90;;;;;;6137048;23;20025;-91
2023/06/11 15:34:25;;;;;;;3.35;3.00;;;31.70;1.00;;;;;;6156963;23;20040;-92
2023/06/11 15:37:14;;;;;;;4.88;3.95;;;31.00;1.00;;;;;;6157902;23;20032;-89
2023/06/11 15:40:02;;;;;;;6.70;3.67;;;30.70;1.00;;;;;;6137030;23;20032;-91
2023/06/11 15:42:50;;;;;;;4.47;3.55;;;30.60;1.00;;;;;;6137642;23;20088;-88
2023/06/11 15:45:37;;;;;;;4.03;3.35;;;30.80;99.90;;;;;;6138618;23;20026;-91